sensor_id;sensor_type;location;lat;lon;timestamp;temperature;humidity
12452;DHT22;6291;48.924;12.204;2022-09-01T00:00:45;15.70;99.90
12452;DHT22;6291;48.924;12.204;2022-09-01T00:05:51;15.80;99.90
12452;DHT22;6291;48.924;12.204;2022-09-01T00:10:58;15.80;99.90
12452;DHT22;6291;48.924;12.204;2022-09-01T00:16:01;15.80;99.90
12452;DHT22;6291;48.924;12.204;2022-09-01T00:21:07;15.80;99.90
12452;DHT22;6291;48.924;12.204;2022-09-01T00:26:11;15.80;99.90
12452;DHT22;6291;48.924;12.204;2022-09-01T00:31:14;15.70;99.90
12452;DHT22;6291;48.924;12.204;2022-09-01T00:36:22;15.70;99.90
12452;DHT22;6291;48.924;12.204;2022-09-01T00:41:28;15.70;99.90
12452;DHT22;6291;48.924;12.204;2022-09-01T00:46:35;15.60;99.90
12452;DHT22;6291;48.924;12.204;2022-09-01T00:51:55;15.60;99.90
12452;DHT22;6291;48.924;12.204;2022-09-01T00:57:01;15.60;99.90
12452;DHT22;6291;48.924;12.204;2022-09-01T01:02:06;15.50;99.90
12452;DHT22;6291;48.924;12.204;2022-09-01T01:07:11;15.50;99.90
12452;DHT22;6291;48.924;12.204;2022-09-01T01:12:15;15.50;99.90
12452;DHT22;6291;48.924;12.204;2022-09-01T01:17:21;15.60;99.90
12452;DHT22;6291;48.924;12.204;2022-09-01T01:22:33;15.60;99.90
12452;DHT22;6291;48.924;12.204;2022-09-01T01:28:05;15.70;99.90
12452;DHT22;6291;48.924;12.204;2022-09-01T01:33:10;15.80;99.90
12452;DHT22;6291;48.924;12.204;2022-09-01T01:38:13;15.80;99.90
12452;DHT22;6291;48.924;12.204;2022-09-01T01:43:19;15.90;99.90
12452;DHT22;6291;48.924;12.204;2022-09-01T01:48:24;15.70;99.90
12452;DHT22;6291;48.924;12.204;2022-09-01T01:53:30;15.70;99.90
12452;DHT22;6291;48.924;12.204;2022-09-01T01:58:35;15.70;99.90
12452;DHT22;6291;48.924;12.204;2022-09-01T02:03:45;15.60;99.90
12452;DHT22;6291;48.924;12.204;2022-09-01T02:08:48;15.70;99.90
12452;DHT22;6291;48.924;12.204;2022-09-01T02:13:55;15.70;99.90
12452;DHT22;6291;48.924;12.204;2022-09-01T02:19:00;15.60;99.90
12452;DHT22;6291;48.924;12.204;2022-09-01T02:24:05;15.60;99.90
12452;DHT22;6291;48.924;12.204;2022-09-01T02:29:15;15.60;99.90
12452;DHT22;6291;48.924;12.204;2022-09-01T02:34:21;15.50;99.90
12452;DHT22;6291;48.924;12.204;2022-09-01T02:39:29;15.50;99.90
12452;DHT22;6291;48.924;12.204;2022-09-01T02:44:36;15.50;99.90
12452;DHT22;6291;48.924;12.204;2022-09-01T02:49:42;15.50;99.90
12452;DHT22;6291;48.924;12.204;2022-09-01T02:54:47;15.50;99.90
12452;DHT22;6291;48.924;12.204;2022-09-01T02:59:53;15.50;99.90
12452;DHT22;6291;48.924;12.204;2022-09-01T03:05:00;15.60;99.90
12452;DHT22;6291;48.924;12.204;2022-09-01T03:10:04;15.60;99.90
12452;DHT22;6291;48.924;12.204;2022-09-01T03:15:12;15.60;99.90
12452;DHT22;6291;48.924;12.204;2022-09-01T03:20:15;15.60;99.90
12452;DHT22;6291;48.924;12.204;2022-09-01T03:25:20;15.60;99.90
12452;DHT22;6291;48.924;12.204;2022-09-01T03:30:28;15.60;99.90
12452;DHT22;6291;48.924;12.204;2022-09-01T03:35:33;15.60;99.90
12452;DHT22;6291;48.924;12.204;2022-09-01T03:40:37;15.60;99.90
12452;DHT22;6291;48.924;12.204;2022-09-01T03:45:42;15.70;99.90
12452;DHT22;6291;48.924;12.204;2022-09-01T03:50:46;15.80;99.90
12452;DHT22;6291;48.924;12.204;2022-09-01T03:55:51;15.80;99.90
12452;DHT22;6291;48.924;12.204;2022-09-01T04:00:58;15.80;99.90
12452;DHT22;6291;48.924;12.204;2022-09-01T04:06:03;15.80;99.90
12452;DHT22;6291;48.924;12.204;2022-09-01T04:11:11;15.70;99.90
12452;DHT22;6291;48.924;12.204;2022-09-01T04:16:21;15.60;99.90
12452;DHT22;6291;48.924;12.204;2022-09-01T04:21:43;15.50;99.90
12452;DHT22;6291;48.924;12.204;2022-09-01T04:26:47;17.00;99.90
12452;DHT22;6291;48.924;12.204;2022-09-01T04:31:54;15.40;99.90
12452;DHT22;6291;48.924;12.204;2022-09-01T04:36:58;15.50;99.90
12452;DHT22;6291;48.924;12.204;2022-09-01T04:42:01;15.50;99.90
12452;DHT22;6291;48.924;12.204;2022-09-01T04:47:09;15.50;99.90
12452;DHT22;6291;48.924;12.204;2022-09-01T04:52:16;15.50;99.90
12452;DHT22;6291;48.924;12.204;2022-09-01T04:57:20;15.50;99.90
12452;DHT22;6291;48.924;12.204;2022-09-01T05:02:25;15.50;99.90
12452;DHT22;6291;48.924;12.204;2022-09-01T05:07:30;17.20;99.90
12452;DHT22;6291;48.924;12.204;2022-09-01T05:12:34;15.50;99.90
12452;DHT22;6291;48.924;12.204;2022-09-01T05:17:39;15.60;99.90
12452;DHT22;6291;48.924;12.204;2022-09-01T05:22:44;15.70;99.90
12452;DHT22;6291;48.924;12.204;2022-09-01T05:27:47;15.70;99.90
12452;DHT22;6291;48.924;12.204;2022-09-01T05:32:57;15.80;99.90
12452;DHT22;6291;48.924;12.204;2022-09-01T05:38:03;17.00;99.90
12452;DHT22;6291;48.924;12.204;2022-09-01T05:43:11;16.10;99.90
12452;DHT22;6291;48.924;12.204;2022-09-01T05:48:17;16.30;99.90
12452;DHT22;6291;48.924;12.204;2022-09-01T05:53:25;16.30;99.90
12452;DHT22;6291;48.924;12.204;2022-09-01T05:58:32;16.60;99.90
12452;DHT22;6291;48.924;12.204;2022-09-01T06:04:00;16.60;99.90
12452;DHT22;6291;48.924;12.204;2022-09-01T06:09:08;16.60;99.90
12452;DHT22;6291;48.924;12.204;2022-09-01T06:14:13;17.00;99.90
12452;DHT22;6291;48.924;12.204;2022-09-01T06:19:20;17.10;99.90
12452;DHT22;6291;48.924;12.204;2022-09-01T06:24:24;17.10;99.90
12452;DHT22;6291;48.924;12.204;2022-09-01T06:29:28;17.10;99.90
12452;DHT22;6291;48.924;12.204;2022-09-01T06:34:34;17.20;99.90
12452;DHT22;6291;48.924;12.204;2022-09-01T06:39:38;17.50;99.90
12452;DHT22;6291;48.924;12.204;2022-09-01T06:44:42;18.10;99.90
12452;DHT22;6291;48.924;12.204;2022-09-01T06:49:48;17.90;99.90
12452;DHT22;6291;48.924;12.204;2022-09-01T06:55:13;17.70;99.90
12452;DHT22;6291;48.924;12.204;2022-09-01T07:00:18;17.50;99.90
12452;DHT22;6291;48.924;12.204;2022-09-01T07:05:25;17.70;99.90
12452;DHT22;6291;48.924;12.204;2022-09-01T07:10:50;18.10;99.90
12452;DHT22;6291;48.924;12.204;2022-09-01T07:16:18;18.70;99.90
12452;DHT22;6291;48.924;12.204;2022-09-01T07:21:44;19.20;99.90
12452;DHT22;6291;48.924;12.204;2022-09-01T07:27:10;20.10;99.90
12452;DHT22;6291;48.924;12.204;2022-09-01T07:32:14;20.10;99.90
12452;DHT22;6291;48.924;12.204;2022-09-01T07:37:39;19.90;99.90
12452;DHT22;6291;48.924;12.204;2022-09-01T07:43:04;19.70;99.90
12452;DHT22;6291;48.924;12.204;2022-09-01T07:48:41;19.50;99.90
12452;DHT22;6291;48.924;12.204;2022-09-01T07:54:06;23.20;99.90
12452;DHT22;6291;48.924;12.204;2022-09-01T07:59:10;19.10;99.90
12452;DHT22;6291;48.924;12.204;2022-09-01T08:04:42;17.60;99.90
12452;DHT22;6291;48.924;12.204;2022-09-01T08:09:48;19.20;99.90
12452;DHT22;6291;48.924;12.204;2022-09-01T08:15:03;19.30;99.90
12452;DHT22;6291;48.924;12.204;2022-09-01T08:20:29;20.30;99.90
12452;DHT22;6291;48.924;12.204;2022-09-01T08:25:57;20.20;99.90
12452;DHT22;6291;48.924;12.204;2022-09-01T08:31:05;21.00;99.90
12452;DHT22;6291;48.924;12.204;2022-09-01T08:36:14;22.00;99.90
12452;DHT22;6291;48.924;12.204;2022-09-01T08:41:34;21.00;99.90
12452;DHT22;6291;48.924;12.204;2022-09-01T08:46:48;21.20;99.90
12452;DHT22;6291;48.924;12.204;2022-09-01T08:51:58;20.30;99.90
12452;DHT22;6291;48.924;12.204;2022-09-01T08:57:08;21.60;99.90
12452;DHT22;6291;48.924;12.204;2022-09-01T09:02:44;22.50;99.90
12452;DHT22;6291;48.924;12.204;2022-09-01T09:08:02;23.10;98.60
12452;DHT22;6291;48.924;12.204;2022-09-01T09:13:18;21.70;97.50
12452;DHT22;6291;48.924;12.204;2022-09-01T09:18:28;21.70;98.60
12452;DHT22;6291;48.924;12.204;2022-09-01T09:23:44;22.80;94.80
12452;DHT22;6291;48.924;12.204;2022-09-01T09:28:49;23.90;91.60
12452;DHT22;6291;48.924;12.204;2022-09-01T09:33:52;22.70;93.20
12452;DHT22;6291;48.924;12.204;2022-09-01T09:39:10;22.80;94.80
12452;DHT22;6291;48.924;12.204;2022-09-01T09:44:21;21.20;95.60
12452;DHT22;6291;48.924;12.204;2022-09-01T09:49:29;22.00;94.90
12452;DHT22;6291;48.924;12.204;2022-09-01T09:54:58;21.70;94.90
12452;DHT22;6291;48.924;12.204;2022-09-01T10:00:06;21.20;94.60
12452;DHT22;6291;48.924;12.204;2022-09-01T10:05:24;20.60;95.10
12452;DHT22;6291;48.924;12.204;2022-09-01T10:10:35;20.20;96.40
12452;DHT22;6291;48.924;12.204;2022-09-01T10:15:45;19.90;96.50
12452;DHT22;6291;48.924;12.204;2022-09-01T10:20:55;19.40;98.20
12452;DHT22;6291;48.924;12.204;2022-09-01T10:26:04;19.90;98.10
12452;DHT22;6291;48.924;12.204;2022-09-01T10:31:13;20.20;98.70
12452;DHT22;6291;48.924;12.204;2022-09-01T10:36:17;20.80;97.20
12452;DHT22;6291;48.924;12.204;2022-09-01T10:41:47;21.20;97.20
12452;DHT22;6291;48.924;12.204;2022-09-01T10:47:07;21.00;96.40
12452;DHT22;6291;48.924;12.204;2022-09-01T10:52:52;20.80;96.00
12452;DHT22;6291;48.924;12.204;2022-09-01T11:03:54;20.80;94.10
12452;DHT22;6291;48.924;12.204;2022-09-01T11:09:02;20.50;95.70
12452;DHT22;6291;48.924;12.204;2022-09-01T11:14:16;20.70;95.30
12452;DHT22;6291;48.924;12.204;2022-09-01T11:19:40;21.00;93.60
12452;DHT22;6291;48.924;12.204;2022-09-01T11:30:44;23.00;93.40
12452;DHT22;6291;48.924;12.204;2022-09-01T11:36:00;25.40;87.10
12452;DHT22;6291;48.924;12.204;2022-09-01T11:41:04;26.50;78.20
12452;DHT22;6291;48.924;12.204;2022-09-01T11:46:11;23.20;78.40
12452;DHT22;6291;48.924;12.204;2022-09-01T11:51:19;22.40;84.90
12452;DHT22;6291;48.924;12.204;2022-09-01T11:56:25;22.50;83.60
12452;DHT22;6291;48.924;12.204;2022-09-01T12:01:32;22.40;85.50
12452;DHT22;6291;48.924;12.204;2022-09-01T12:06:37;22.40;83.70
12452;DHT22;6291;48.924;12.204;2022-09-01T12:11:41;23.30;80.70
12452;DHT22;6291;48.924;12.204;2022-09-01T12:16:55;24.00;77.20
12452;DHT22;6291;48.924;12.204;2022-09-01T12:22:03;24.40;77.40
12452;DHT22;6291;48.924;12.204;2022-09-01T12:27:09;26.90;71.10
12452;DHT22;6291;48.924;12.204;2022-09-01T12:32:13;26.70;69.10
12452;DHT22;6291;48.924;12.204;2022-09-01T12:37:23;25.70;70.50
12452;DHT22;6291;48.924;12.204;2022-09-01T12:42:30;25.70;71.00
12452;DHT22;6291;48.924;12.204;2022-09-01T12:47:49;27.60;65.40
12452;DHT22;6291;48.924;12.204;2022-09-01T12:52:56;27.10;61.90
12452;DHT22;6291;48.924;12.204;2022-09-01T12:58:01;26.90;63.10
12452;DHT22;6291;48.924;12.204;2022-09-01T13:03:11;21.50;63.00
12452;DHT22;6291;48.924;12.204;2022-09-01T13:08:20;27.40;59.60
12452;DHT22;6291;48.924;12.204;2022-09-01T13:13:25;33.30;59.60
12452;DHT22;6291;48.924;12.204;2022-09-01T13:18:29;31.40;50.00
12452;DHT22;6291;48.924;12.204;2022-09-01T13:23:34;31.00;50.00
12452;DHT22;6291;48.924;12.204;2022-09-01T13:28:38;29.70;47.90
12452;DHT22;6291;48.924;12.204;2022-09-01T13:33:42;26.60;55.80
12452;DHT22;6291;48.924;12.204;2022-09-01T13:39:06;23.90;59.60
12452;DHT22;6291;48.924;12.204;2022-09-01T13:44:10;22.20;63.20
12452;DHT22;6291;48.924;12.204;2022-09-01T13:49:14;22.20;66.20
12452;DHT22;6291;48.924;12.204;2022-09-01T13:54:38;22.40;66.50
12452;DHT22;6291;48.924;12.204;2022-09-01T13:59:43;22.20;67.60
12452;DHT22;6291;48.924;12.204;2022-09-01T14:04:46;22.00;68.00
12452;DHT22;6291;48.924;12.204;2022-09-01T14:09:51;21.80;69.30
12452;DHT22;6291;48.924;12.204;2022-09-01T14:14:56;21.40;71.90
12452;DHT22;6291;48.924;12.204;2022-09-01T14:20:20;21.20;71.70
12452;DHT22;6291;48.924;12.204;2022-09-01T14:25:26;21.10;71.50
12452;DHT22;6291;48.924;12.204;2022-09-01T14:30:31;21.00;71.70
12452;DHT22;6291;48.924;12.204;2022-09-01T14:35:37;21.00;70.60
12452;DHT22;6291;48.924;12.204;2022-09-01T14:40:46;21.00;70.50
12452;DHT22;6291;48.924;12.204;2022-09-01T14:46:01;23.60;68.00
12452;DHT22;6291;48.924;12.204;2022-09-01T14:51:08;27.70;52.40
12452;DHT22;6291;48.924;12.204;2022-09-01T14:56:13;29.90;48.30
12452;DHT22;6291;48.924;12.204;2022-09-01T15:01:19;30.90;42.70
12452;DHT22;6291;48.924;12.204;2022-09-01T15:06:35;31.50;43.20
12452;DHT22;6291;48.924;12.204;2022-09-01T15:11:41;33.20;39.80
12452;DHT22;6291;48.924;12.204;2022-09-01T15:16:45;32.80;41.10
12452;DHT22;6291;48.924;12.204;2022-09-01T15:21:48;32.50;38.50
12452;DHT22;6291;48.924;12.204;2022-09-01T15:26:53;30.30;39.70
12452;DHT22;6291;48.924;12.204;2022-09-01T15:31:56;26.80;48.60
12452;DHT22;6291;48.924;12.204;2022-09-01T15:37:00;26.00;50.60
12452;DHT22;6291;48.924;12.204;2022-09-01T15:42:05;25.50;52.40
12452;DHT22;6291;48.924;12.204;2022-09-01T15:47:09;24.90;50.40
12452;DHT22;6291;48.924;12.204;2022-09-01T15:52:12;24.10;55.50
12452;DHT22;6291;48.924;12.204;2022-09-01T15:57:17;24.90;54.20
12452;DHT22;6291;48.924;12.204;2022-09-01T16:02:21;26.10;52.40
12452;DHT22;6291;48.924;12.204;2022-09-01T16:07:28;26.20;52.10
12452;DHT22;6291;48.924;12.204;2022-09-01T16:12:33;25.30;52.90
12452;DHT22;6291;48.924;12.204;2022-09-01T16:17:50;26.00;53.00
12452;DHT22;6291;48.924;12.204;2022-09-01T16:23:07;27.50;48.60
12452;DHT22;6291;48.924;12.204;2022-09-01T16:28:23;29.00;46.70
12452;DHT22;6291;48.924;12.204;2022-09-01T16:33:27;29.70;46.00
12452;DHT22;6291;48.924;12.204;2022-09-01T16:38:37;29.20;45.80
12452;DHT22;6291;48.924;12.204;2022-09-01T16:43:51;27.80;48.40
12452;DHT22;6291;48.924;12.204;2022-09-01T16:49:00;24.00;49.60
12452;DHT22;6291;48.924;12.204;2022-09-01T16:54:16;23.90;56.40
12452;DHT22;6291;48.924;12.204;2022-09-01T16:59:30;22.80;61.20
12452;DHT22;6291;48.924;12.204;2022-09-01T17:04:39;22.00;65.10
12452;DHT22;6291;48.924;12.204;2022-09-01T17:09:48;21.70;65.20
12452;DHT22;6291;48.924;12.204;2022-09-01T17:14:57;21.60;64.40
12452;DHT22;6291;48.924;12.204;2022-09-01T17:20:05;21.30;64.40
12452;DHT22;6291;48.924;12.204;2022-09-01T17:25:10;20.90;65.40
12452;DHT22;6291;48.924;12.204;2022-09-01T17:30:21;20.60;67.40
12452;DHT22;6291;48.924;12.204;2022-09-01T17:35:30;20.30;69.10
12452;DHT22;6291;48.924;12.204;2022-09-01T17:40:48;20.10;71.90
12452;DHT22;6291;48.924;12.204;2022-09-01T17:46:02;20.00;71.90
12452;DHT22;6291;48.924;12.204;2022-09-01T17:51:12;20.00;72.00
12452;DHT22;6291;48.924;12.204;2022-09-01T17:56:34;19.90;71.50
12452;DHT22;6291;48.924;12.204;2022-09-01T18:01:46;19.70;72.40
12452;DHT22;6291;48.924;12.204;2022-09-01T18:06:56;19.50;75.20
12452;DHT22;6291;48.924;12.204;2022-09-01T18:12:07;19.30;77.30
12452;DHT22;6291;48.924;12.204;2022-09-01T18:17:16;19.10;75.80
12452;DHT22;6291;48.924;12.204;2022-09-01T18:22:21;18.80;73.20
12452;DHT22;6291;48.924;12.204;2022-09-01T18:27:27;18.70;73.20
12452;DHT22;6291;48.924;12.204;2022-09-01T18:32:40;18.40;72.90
12452;DHT22;6291;48.924;12.204;2022-09-01T18:37:55;18.20;74.50
12452;DHT22;6291;48.924;12.204;2022-09-01T18:43:05;17.90;76.60
12452;DHT22;6291;48.924;12.204;2022-09-01T18:48:24;17.80;78.00
12452;DHT22;6291;48.924;12.204;2022-09-01T18:53:39;17.70;79.50
12452;DHT22;6291;48.924;12.204;2022-09-01T18:58:54;17.50;81.20
12452;DHT22;6291;48.924;12.204;2022-09-01T19:04:06;17.40;85.40
12452;DHT22;6291;48.924;12.204;2022-09-01T19:09:14;17.60;82.50
12452;DHT22;6291;48.924;12.204;2022-09-01T19:14:28;17.80;82.20
12452;DHT22;6291;48.924;12.204;2022-09-01T19:19:39;17.80;82.30
12452;DHT22;6291;48.924;12.204;2022-09-01T19:24:49;17.60;83.10
12452;DHT22;6291;48.924;12.204;2022-09-01T19:29:57;17.80;81.90
12452;DHT22;6291;48.924;12.204;2022-09-01T19:35:07;17.70;82.30
12452;DHT22;6291;48.924;12.204;2022-09-01T19:40:13;17.50;82.40
12452;DHT22;6291;48.924;12.204;2022-09-01T19:45:28;17.40;82.60
12452;DHT22;6291;48.924;12.204;2022-09-01T19:50:45;17.30;83.20
12452;DHT22;6291;48.924;12.204;2022-09-01T19:55:57;17.30;83.60
12452;DHT22;6291;48.924;12.204;2022-09-01T20:01:08;17.30;84.70
12452;DHT22;6291;48.924;12.204;2022-09-01T20:06:21;17.10;86.00
12452;DHT22;6291;48.924;12.204;2022-09-01T20:11:40;21.70;88.70
12452;DHT22;6291;48.924;12.204;2022-09-01T20:16:49;16.80;85.90
12452;DHT22;6291;48.924;12.204;2022-09-01T20:22:05;16.60;86.70
12452;DHT22;6291;48.924;12.204;2022-09-01T20:27:24;16.50;87.70
12452;DHT22;6291;48.924;12.204;2022-09-01T20:32:39;16.30;90.00
12452;DHT22;6291;48.924;12.204;2022-09-01T20:37:48;16.00;90.70
12452;DHT22;6291;48.924;12.204;2022-09-01T20:43:06;16.00;92.60
12452;DHT22;6291;48.924;12.204;2022-09-01T20:48:15;15.90;94.30
12452;DHT22;6291;48.924;12.204;2022-09-01T20:53:48;15.80;97.80
12452;DHT22;6291;48.924;12.204;2022-09-01T20:58:57;15.70;99.40
12452;DHT22;6291;48.924;12.204;2022-09-01T21:04:07;15.40;99.90
12452;DHT22;6291;48.924;12.204;2022-09-01T21:09:16;15.30;99.90
12452;DHT22;6291;48.924;12.204;2022-09-01T21:14:32;15.30;99.90
12452;DHT22;6291;48.924;12.204;2022-09-01T21:19:47;15.10;99.90
12452;DHT22;6291;48.924;12.204;2022-09-01T21:24:55;14.90;99.90
12452;DHT22;6291;48.924;12.204;2022-09-01T21:30:00;14.80;99.90
12452;DHT22;6291;48.924;12.204;2022-09-01T21:35:07;14.80;99.90
12452;DHT22;6291;48.924;12.204;2022-09-01T21:40:13;14.60;99.90
12452;DHT22;6291;48.924;12.204;2022-09-01T21:45:17;14.60;99.90
12452;DHT22;6291;48.924;12.204;2022-09-01T21:50:22;14.50;99.90
12452;DHT22;6291;48.924;12.204;2022-09-01T21:55:28;14.40;99.90
12452;DHT22;6291;48.924;12.204;2022-09-01T22:00:34;14.30;99.90
12452;DHT22;6291;48.924;12.204;2022-09-01T22:05:41;14.20;99.90
12452;DHT22;6291;48.924;12.204;2022-09-01T22:10:48;14.10;99.90
12452;DHT22;6291;48.924;12.204;2022-09-01T22:15:52;14.00;99.90
12452;DHT22;6291;48.924;12.204;2022-09-01T22:21:06;13.90;99.90
12452;DHT22;6291;48.924;12.204;2022-09-01T22:26:18;13.80;99.90
12452;DHT22;6291;48.924;12.204;2022-09-01T22:31:23;13.60;99.90
12452;DHT22;6291;48.924;12.204;2022-09-01T22:36:29;13.40;99.90
12452;DHT22;6291;48.924;12.204;2022-09-01T22:41:35;13.40;99.90
12452;DHT22;6291;48.924;12.204;2022-09-01T22:46:39;13.30;99.90
12452;DHT22;6291;48.924;12.204;2022-09-01T22:51:42;13.20;99.90
12452;DHT22;6291;48.924;12.204;2022-09-01T22:56:48;13.20;99.90
12452;DHT22;6291;48.924;12.204;2022-09-01T23:01:55;13.00;99.90
12452;DHT22;6291;48.924;12.204;2022-09-01T23:06:59;12.90;99.90
12452;DHT22;6291;48.924;12.204;2022-09-01T23:12:05;12.90;99.90
12452;DHT22;6291;48.924;12.204;2022-09-01T23:17:08;12.80;99.90
12452;DHT22;6291;48.924;12.204;2022-09-01T23:22:11;12.70;99.90
12452;DHT22;6291;48.924;12.204;2022-09-01T23:27:17;12.70;99.90
12452;DHT22;6291;48.924;12.204;2022-09-01T23:32:20;12.70;99.90
12452;DHT22;6291;48.924;12.204;2022-09-01T23:37:24;12.50;99.90
12452;DHT22;6291;48.924;12.204;2022-09-01T23:42:28;12.60;99.90
12452;DHT22;6291;48.924;12.204;2022-09-01T23:47:32;12.50;99.90
12452;DHT22;6291;48.924;12.204;2022-09-01T23:52:37;12.60;99.90
12452;DHT22;6291;48.924;12.204;2022-09-01T23:57:42;12.60;99.90
